Terminal Aerodrome Forecast
Issued by NWS Tulsa, OK

Home | Current Version | Previous Version | Text Only | Print | Product List | Glossary On
Versions: 1 2 3 4 5 6 7 8 9 10 11 12 13 14
908
FTUS44 KTSA 260520
TAFFSM
TAF
KFSM 260520Z 2606/2706 07012KT P6SM BKN040
      TEMPO 2606/2609 3SM TSRA BKN040CB
     FM260900 07003KT 5SM BR SCT040 BKN200
     FM261500 08005KT P6SM SCT050 BKN100 PROB30 2618/2624 4SM TSRA
      BKN050CB=

USA.gov is the U.S. government's official web portal to all federal, state and local government web resources and services.